Latest Weather Observations for Curtin

IDW60801

Issued at 11:03 am WST Thursday 29 September 2016 (issued every 30 minutes, with the page automatically refreshed every 10 minutes)

About weather observations | Map of weather stations | Latest weather observations for WA | Other Formats
Station Details ID: 003080 Name: CURTIN AERO Lat: -17.58 Lon: 123.83 Height: 77.5 m
Data from the previous 72 hours. | See also: Recent months at Curtin
Date/Time
WST
Temp
°C
App
Temp
°C
Dew
Point
°C
Rel
Hum
%
Delta-T
°C
Wind Press
QNH
hPa
Press
MSL
hPa
Rain since
9am
mm
Dir  Spd
km/h
Gust
km/h
Spd
kts
Gust
kts
29/11:00am 34.5 28.3 -2.9 9 17.6 SE 20 30 11 16 1010.2 1009.8 0.0
29/10:30am 33.3 26.8 -2.4 10 16.8 ESE 22 32 12 17 1010.8 1010.4 0.0
29/10:00am 31.6 24.9 -1.2 12 15.6 SE 24 37 13 20 1011.3 1010.9 0.0
29/09:30am 30.8 24.5 -0.8 13 15.0 SE 22 35 12 19 1011.6 1011.2 0.0
29/09:00am 29.8 23.2 -0.5 14 14.4 SE 24 35 13 19 1011.8 1011.4 0.0
29/08:30am 28.8 21.8 -0.4 15 13.8 SSE 26 39 14 21 1011.8 1011.4 0.0
29/08:00am 29.5 23.6 1.9 17 13.6 SSE 22 32 12 17 1011.6 1011.2 0.0
29/07:30am 28.1 21.7 3.0 20 12.5 SSE 26 41 14 22 1011.3 1010.9 0.0
29/07:00am 27.4 23.0 7.3 28 10.8 SSE 20 32 11 17 1010.8 1010.4 0.0
29/06:30am 26.3 24.7 13.8 46 7.4 SSE 15 19 8 10 1010.4 1010.0 0.0
29/06:00am 25.8 24.7 14.3 49 6.9 S 13 17 7 9 1010.1 1009.7 0.0
29/05:30am 25.5 24.5 14.6 51 6.5 S 13 15 7 8 1009.8 1009.4 0.0
29/05:00am 25.2 24.7 14.9 52 6.2 S 11 13 6 7 1009.4 1009.0 0.0
29/04:30am 25.7 25.3 15.1 52 6.4 S 11 15 6 8 1009.3 1008.9 0.0
29/04:00am 26.2 25.8 15.3 51 6.6 S 11 13 6 7 1009.0 1008.5 0.0
29/03:30am 26.4 26.8 15.4 50 6.7 S 7 11 4 6 1008.8 1008.3 0.0
29/03:00am 26.7 26.8 15.4 50 6.9 SSW 9 13 5 7 1008.9 1008.4 0.0
29/02:30am 26.9 27.3 15.3 49 7.1 SSW 7 9 4 5 1008.8 1008.3 0.0
29/02:00am 27.0 27.2 15.7 50 6.9 SSW 9 9 5 5 1008.9 1008.4 0.0
29/01:30am 26.9 27.5 15.9 51 6.8 SSW 7 9 4 5 1009.3 1008.9 0.0
29/01:00am 26.1 26.6 14.9 50 6.8 SSW 6 7 3 4 1009.5 1009.1 0.0
29/12:30am 27.2 27.7 15.6 49 7.1 S 7 9 4 5 1009.8 1009.4 0.0
29/12:00am 27.2 27.7 15.6 49 7.1 S 7 9 4 5 1010.1 1009.7 0.0
 
Date/Time
WST
Temp
°C
App
Temp
°C
Dew
Point
°C
Rel
Hum
%
Delta-T
°C
Wind Press
QNH
hPa
Press
MSL
hPa
Rain since
9am
mm
Dir  Spd
km/h
Gust
km/h
Spd
kts
Gust
kts
28/11:30pm 27.5 27.6 15.5 48 7.3 S 9 11 5 6 1010.3 1009.9 0.0
28/11:00pm 27.6 27.7 15.6 48 7.4 S 9 13 5 7 1010.4 1010.0 0.0
28/10:30pm 27.6 27.0 15.6 48 7.4 S 13 15 7 8 1010.6 1010.2 0.0
28/10:00pm 27.8 26.9 15.8 48 7.4 S 15 17 8 9 1010.6 1010.2 0.0
28/09:30pm 28.0 27.3 16.3 49 7.3 S 15 20 8 11 1010.6 1010.2 0.0
28/09:00pm 28.3 27.3 16.6 49 7.3 SSE 17 20 9 11 1010.6 1010.2 0.0
28/08:30pm 28.8 26.9 16.7 48 7.6 S 22 30 12 16 1010.4 1010.0 0.0
28/08:00pm 29.2 27.7 16.7 46 7.9 S 20 28 11 15 1010.1 1009.7 0.0
28/07:30pm 29.6 27.6 16.4 45 8.3 S 22 30 12 16 1009.8 1009.4 0.0
28/07:00pm 30.0 27.0 16.8 45 8.3 S 28 35 15 19 1009.4 1009.0 0.0
28/06:30pm 30.6 27.7 17.0 44 8.6 SSW 28 35 15 19 1009.1 1008.6 0.0
28/06:00pm 31.5 28.8 16.6 40 9.4 S 26 32 14 17 1008.4 1007.9 0.0
28/05:30pm 32.2 29.2 16.9 40 9.7 S 28 37 15 20 1008.1 1007.6 0.0
28/05:00pm 33.5 30.0 16.4 36 10.9 SSW 30 41 16 22 1007.7 1007.2 0.0
28/04:30pm 35.1 33.1 16.4 32 11.9 SSW 22 30 12 16 1007.3 1006.8 0.0
28/04:00pm 34.9 31.3 16.2 32 11.9 S 30 35 16 19 1007.1 1006.6 0.0
28/03:30pm 36.5 34.7 14.5 27 13.7 SSW 17 22 9 12 1007.0 1006.5 0.0
28/03:00pm 36.8 35.6 14.1 25 14.1 SE 13 20 7 11 1007.1 1006.6 0.0
28/02:30pm 36.5 34.1 13.9 26 14.0 SW 19 32 10 17 1007.5 1007.0 0.0
28/02:00pm 36.4 35.1 13.8 26 14.0 SE 13 22 7 12 1007.8 1007.3 0.0
28/01:30pm 36.8 35.6 14.1 25 14.1 SW 13 22 7 12 1008.2 1007.7 0.0
28/01:00pm 36.0 34.6 13.5 26 13.8 SSE 13 24 7 13 1008.7 1008.2 0.0
28/12:30pm 36.2 33.9 13.0 24 14.1 SSW 17 26 9 14 1009.4 1009.0 0.0
28/12:00pm 35.2 31.9 12.8 26 13.6 SSW 22 32 12 17 1010.1 1009.7 0.0
28/11:30am 34.7 32.0 13.0 27 13.1 S 19 33 10 18 1010.6 1010.2 0.0
28/11:00am 33.9 31.5 13.9 30 12.3 S 19 30 10 16 1011.0 1010.6 0.0
28/10:30am 33.0 30.9 13.6 31 11.8 S 17 24 9 13 1011.4 1011.0 0.0
28/10:00am 32.2 30.6 13.9 33 11.1 SSE 15 26 8 14 1011.7 1011.3 0.0
28/09:30am 31.5 29.2 14.2 35 10.5 SSE 19 24 10 13 1012.1 1011.7 0.0
28/09:00am 30.0 29.0 15.7 42 8.9 SSE 15 22 8 12 1012.3 1011.9 0.0
28/08:30am 28.9 27.5 17.1 49 7.4 S 20 26 11 14 1012.5 1012.1 0.0
28/08:00am 27.6 27.1 18.6 58 5.8 SSW 19 28 10 15 1012.5 1012.1 0.0
28/07:30am 26.7 26.8 20.3 68 4.2 SSW 20 24 11 13 1012.3 1011.9 0.0
28/07:00am 25.6 26.2 21.3 77 2.9 SW 20 24 11 13 1011.9 1011.5 0.0
28/06:30am 24.4 26.2 21.9 86 1.7 SW 15 20 8 11 1011.5 1011.1 0.0
28/06:00am 23.4 26.3 21.7 90 1.1 SW 9 11 5 6 1011.1 1010.7 0.0
28/05:30am 23.1 25.8 21.4 90 1.1 SW 9 13 5 7 1010.7 1010.3 0.0
28/05:00am 23.0 25.3 20.7 87 1.5 SW 9 11 5 6 1010.3 1009.9 0.0
28/04:30am 23.3 25.2 20.6 85 1.8 SW 11 13 6 7 1009.8 1009.4 0.0
28/04:00am 23.4 25.6 20.5 84 1.9 SW 9 11 5 6 1009.6 1009.2 0.0
28/03:30am 23.6 25.8 20.5 83 2.0 WSW 9 11 5 6 1009.3 1008.9 0.0
28/03:00am 23.9 25.7 20.4 81 2.3 W 11 13 6 7 1009.2 1008.8 0.0
28/02:30am 24.2 26.0 20.3 79 2.5 WSW 11 15 6 8 1009.2 1008.8 0.0
28/02:00am 24.5 25.8 20.2 77 2.8 WSW 13 17 7 9 1009.0 1008.5 0.0
28/01:30am 24.9 25.6 19.7 73 3.4 WSW 15 19 8 10 1009.2 1008.8 0.0
28/01:00am 25.2 25.7 19.3 70 3.8 WSW 15 19 8 10 1009.3 1008.9 0.0
28/12:30am 25.7 25.2 18.6 65 4.5 WSW 19 24 10 13 1009.5 1009.1 0.0
28/12:00am 26.1 25.9 18.5 63 4.9 W 17 26 9 14 1009.8 1009.4 0.0
 
Date/Time
WST
Temp
°C
App
Temp
°C
Dew
Point
°C
Rel
Hum
%
Delta-T
°C
Wind Press
QNH
hPa
Press
MSL
hPa
Rain since
9am
mm
Dir  Spd
km/h
Gust
km/h
Spd
kts
Gust
kts
27/11:30pm 26.6 25.9 18.7 62 5.1 W 20 28 11 15 1010.0 1009.6 0.0
27/11:00pm 27.1 26.8 19.2 62 5.1 WSW 19 26 10 14 1010.2 1009.8 0.0
27/10:30pm 27.8 27.5 19.1 59 5.6 W 19 26 10 14 1010.3 1009.9 0.0
27/10:00pm 28.2 28.7 18.3 55 6.3 W 13 19 7 10 1010.5 1010.1 0.0
27/09:30pm 28.4 30.2 19.6 59 5.7 WNW 9 13 5 7 1010.4 1010.0 0.0
27/09:00pm 28.7 30.8 20.2 60 5.6 NW 9 15 5 8 1010.2 1009.8 0.0
27/08:30pm 29.1 30.7 20.0 58 6.0 NW 11 15 6 8 1010.2 1009.8 0.0
27/08:00pm 29.6 30.2 18.7 52 7.1 NW 13 20 7 11 1009.9 1009.5 0.0
27/07:30pm 30.0 29.9 17.8 48 7.8 NNW 15 20 8 11 1009.5 1009.1 0.0
27/07:00pm 30.5 30.1 16.1 41 9.0 NNW 13 20 7 11 1009.1 1008.6 0.0
27/06:30pm 31.5 29.7 15.5 38 9.9 NNW 19 28 10 15 1008.6 1008.1 0.0
27/06:00pm 32.5 31.0 14.1 32 11.3 NNW 15 22 8 12 1008.0 1007.5 0.0
27/05:30pm 33.8 31.8 13.8 30 12.2 NW 17 24 9 13 1007.6 1007.1 0.0
27/05:00pm 35.2 32.3 12.8 26 13.6 NW 20 30 11 16 1006.9 1006.4 0.0
27/04:30pm 37.0 35.1 11.8 22 15.1 NW 13 22 7 12 1006.5 1006.0 0.0
27/04:00pm 37.3 34.5 11.3 21 15.6 NW 17 24 9 13 1006.3 1005.8 0.0
27/03:30pm 37.9 35.6 10.3 19 16.3 NW 13 22 7 12 1006.2 1005.7 0.0
27/03:00pm 37.2 34.3 9.7 19 16.1 NNW 15 22 8 12 1006.4 1005.9 0.0
27/02:30pm 37.7 34.1 8.5 17 16.8 NNW 17 30 9 16 1006.4 1005.9 0.0
27/02:00pm 37.9 34.6 9.5 18 16.6 NNW 17 28 9 15 1006.8 1006.3 0.0
27/01:30pm 37.6 35.0 9.2 18 16.5 NW 13 26 7 14 1007.1 1006.6 0.0
27/01:00pm 37.7 35.1 9.3 18 16.5 NNW 13 20 7 11 1007.5 1007.0 0.0
27/12:30pm 36.3 34.2 9.8 20 15.4 NW 11 22 6 12 1008.1 1007.6 0.0
27/12:00pm 36.5 33.7 9.9 20 15.5 W 15 30 8 16 1008.6 1008.1 0.0
27/11:30am 36.1 34.0 9.6 20 15.3 S 11 24 6 13 1009.1 1008.6 0.0
27/11:00am 35.8 33.4 10.1 21 15.0 SW 13 22 7 12 1009.6 1009.2 0.0
27/10:30am 35.1 33.7 10.9 23 14.2 S 9 15 5 8 1010.3 1009.9 0.0
27/10:00am 35.0 33.2 9.4 21 14.7 S 9 15 5 8 1010.8 1010.4 0.0
27/09:30am 33.4 32.7 11.9 27 12.7 SW 7 13 4 7 1011.2 1010.8 0.0
27/09:00am 32.3 33.2 16.2 38 10.1 SSW 6 11 3 6 1011.6 1011.2 0.0
27/08:30am 30.5 31.5 16.9 44 8.6 SW 7 11 4 6 1011.8 1011.4 0.0
27/08:00am 28.6 30.3 18.4 54 6.6 WSW 7 11 4 6 1011.9 1011.5 0.0
27/07:30am 26.9 29.1 19.5 64 4.8 SSW 7 11 4 6 1011.7 1011.3 0.0
27/07:00am 25.6 27.3 20.2 72 3.5 SW 11 15 6 8 1011.4 1011.0 0.0
27/06:30am 24.1 25.5 20.4 80 2.4 WSW 13 17 7 9 1011.2 1010.8 0.0
27/06:00am 22.7 24.7 19.1 80 2.3 W 7 11 4 6 1011.0 1010.6 0.0
27/05:30am 20.5 21.7 17.3 82 2.0 NW 7 9 4 5 1010.9 1010.5 0.0
27/05:00am 21.7 23.0 17.5 77 2.6 NW 7 9 4 5 1010.6 1010.2 0.0
27/04:30am 22.9 24.2 18.4 76 2.8 WNW 9 13 5 7 1010.3 1009.9 0.0
27/04:00am 23.2 24.4 18.3 74 3.1 W 9 11 5 6 1010.0 1009.6 0.0
27/03:30am 22.1 22.9 16.4 70 3.5 W 7 9 4 5 1009.6 1009.2 0.0
27/03:00am 23.5 24.7 16.8 66 4.1 SW 6 7 3 4 1009.5 1009.1 0.0
27/02:30am 24.6 25.4 17.3 64 4.5 SW 9 11 5 6 1009.4 1009.0 0.0
27/02:00am 24.9 26.1 17.4 63 4.7 SW 7 9 4 5 1009.4 1009.0 0.0
27/01:30am 25.2 25.5 17.1 60 5.0 SW 11 15 6 8 1009.5 1009.1 0.0
27/01:00am 25.7 25.8 16.5 56 5.7 SW 11 15 6 8 1009.5 1009.1 0.0
27/12:30am 25.9 25.9 15.3 52 6.4 SW 9 13 5 7 1009.7 1009.3 0.0
27/12:00am 25.5 25.2 14.3 50 6.7 WSW 9 9 5 5 1009.9 1009.5 0.0
 
Date/Time
WST
Temp
°C
App
Temp
°C
Dew
Point
°C
Rel
Hum
%
Delta-T
°C
Wind Press
QNH
hPa
Press
MSL
hPa
Rain since
9am
mm
Dir  Spd
km/h
Gust
km/h
Spd
kts
Gust
kts
26/11:30pm 26.3 25.4 13.8 46 7.4 WSW 11 15 6 8 1010.1 1009.7 0.0
26/11:00pm 26.7 25.5 14.1 46 7.5 WSW 13 15 7 8 1010.4 1010.0 0.0
26/10:30pm 26.8 27.6 18.1 59 5.5 WSW 11 13 6 7 1010.5 1010.1 0.0
26/10:00pm 26.7 29.2 21.0 71 3.8 W 9 11 5 6 1010.6 1010.2 0.0
26/09:30pm 26.9 29.5 21.2 71 3.8 WNW 9 11 5 6 1010.5 1010.1 0.0
26/09:00pm 27.2 29.3 19.3 62 5.1 WNW 7 9 4 5 1010.7 1010.3 0.0
26/08:30pm 27.9 29.6 18.6 57 6.0 WNW 7 9 4 5 1010.6 1010.2 0.0
26/08:00pm 28.6 29.6 17.8 52 6.9 NW 9 13 5 7 1010.5 1010.1 0.0
26/07:30pm 29.2 29.3 18.3 51 7.0 WNW 15 20 8 11 1010.2 1009.8 0.0
26/07:00pm 30.5 30.6 16.5 43 8.8 NNW 11 17 6 9 1009.6 1009.2 0.0
26/06:30pm 31.3 31.6 16.1 40 9.5 NNW 9 13 5 7 1009.0 1008.5 0.0
26/06:00pm 31.9 31.7 16.6 39 9.7 NW 13 19 7 10 1008.5 1008.0 0.0
26/05:30pm 33.8 32.1 14.8 32 11.8 NNW 17 26 9 14 1008.0 1007.5 0.0
26/05:00pm 35.5 33.4 11.2 23 14.4 NNW 13 20 7 11 1007.5 1007.0 0.0
26/04:30pm 36.1 32.4 8.0 18 15.9 NNW 17 24 9 13 1007.1 1006.6 0.0
26/04:00pm 36.8 33.5 9.4 19 15.9 NW 17 24 9 13 1006.9 1006.4 0.0
26/03:30pm 36.1 33.2 9.6 20 15.3 NNW 15 24 8 13 1006.9 1006.4 0.0
26/03:00pm 36.0 33.1 9.5 20 15.4 NNW 15 28 8 15 1006.9 1006.4 0.0
26/02:30pm 37.2 33.4 8.9 18 16.3 WNW 19 26 10 14 1007.0 1006.5 0.0
26/02:00pm 36.4 33.4 9.1 19 15.7 NW 15 24 8 13 1007.1 1006.6 0.0
26/01:30pm 36.9 34.6 11.7 22 15.1 W 15 24 8 13 1007.4 1006.9 0.0
26/01:00pm 35.8 33.8 11.4 23 14.5 W 13 22 7 12 1007.8 1007.3 0.0
26/12:30pm 35.0 32.8 10.8 23 14.2 W 13 24 7 13 1008.2 1007.7 0.0
26/12:00pm 34.4 32.4 11.5 25 13.6 W 13 19 7 10 1008.8 1008.3 0.0
26/11:30am 34.6 33.8 12.9 27 13.1 S 9 17 5 9 1009.3 1008.9 0.0

Other Formats:

Comma delimited format used in spreadsheet applications
http://www.bom.gov.au/fwo/IDW60801/IDW60801.94204.axf

JavaScript Object Notation format (JSON) in row-major order
http://www.bom.gov.au/fwo/IDW60801/IDW60801.94204.json